Time;durP1;ratioP1;P1;durP2;ratioP2;P2;SDS_P1;SDS_P2;PMS_P1;PMS_P2;Temp;Humidity;BMP_temperature;BMP_pressure;BME280_temperature;BME280_humidity;BME280_pressure;Samples;Min_cycle;Max_cycle;Signal;HPM_P1;HPM_P2
2023/01/23 00:04:17;;;;;;;;;;;;;;;-4.04;100.00;96690.34;10521324;28;2903;-72
2023/01/23 00:09:20;;;;;;;;;;;;;;;-3.91;100.00;96696.78;10519443;28;2834;-70
2023/01/23 00:14:23;;;;;;;;;;;;;;;-3.97;100.00;96713.16;10517626;28;3004;-70
2023/01/23 00:19:26;;;;;;;;;;;;;;;-3.99;100.00;96707.25;10517908;28;3058;-72
2023/01/23 00:24:29;;;;;;;;;;;;;;;-4.13;100.00;96715.75;10521491;28;2950;-70
2023/01/23 00:29:32;;;;;;;;;;;;;;;-4.29;100.00;96723.56;10519104;28;2897;-69
2023/01/23 00:34:35;;;;;;;;;;;;;;;-4.41;100.00;96699.38;10531366;28;2971;-70
2023/01/23 00:39:39;;;;;;;;;;;;;;;-4.47;100.00;96700.84;10538576;28;2863;-69
2023/01/23 00:44:42;;;;;;;;;;;;;;;-4.51;100.00;96707.41;10530586;28;2976;-68
2023/01/23 00:49:45;;;;;;;;;;;;;;;-4.57;100.00;96708.03;10528505;28;2902;-69
2023/01/23 00:54:48;;;;;;;;;;;;;;;-4.66;100.00;96714.19;10530025;28;3132;-68
2023/01/23 00:59:51;;;;;;;;;;;;;;;-4.59;100.00;96719.63;10525260;28;2829;-74
2023/01/23 01:04:54;;;;;;;;;;;;;;;-4.57;100.00;96736.88;10524693;28;2894;-69
2023/01/23 01:09:58;;;;;;;;;;;;;;;-4.35;100.00;96731.09;10523139;28;2832;-69
2023/01/23 01:15:01;;;;;;;;;;;;;;;-4.22;100.00;96737.69;10524949;28;2970;-67
2023/01/23 01:20:05;;;;;;;;;;;;;;;-4.02;100.00;96741.72;10528699;28;2938;-69
2023/01/23 01:25:08;;;;;;;;;;;;;;;-3.94;100.00;96740.94;10524256;28;2937;-69
2023/01/23 01:30:11;;;;;;;;;;;;;;;-3.86;100.00;96738.31;10527938;28;2854;-69
2023/01/23 01:35:15;;;;;;;;;;;;;;;-3.76;100.00;96738.16;10520473;28;2902;-70
2023/01/23 01:40:18;;;;;;;;;;;;;;;-3.71;100.00;96734.09;10529202;28;2917;-68
2023/01/23 01:45:21;;;;;;;;;;;;;;;-3.78;100.00;96719.94;10526369;28;2873;-76
2023/01/23 01:50:25;;;;;;;;;;;;;;;-3.76;100.00;96711.91;10531047;28;2921;-73
2023/01/23 01:55:28;;;;;;;;;;;;;;;-3.79;100.00;96713.06;10524936;28;2843;-70
2023/01/23 02:00:31;;;;;;;;;;;;;;;-3.67;100.00;96710.94;10529071;28;2917;-69
2023/01/23 02:05:34;;;;;;;;;;;;;;;-3.68;100.00;96706.69;10526638;28;2906;-69
2023/01/23 02:10:39;;;;;;;;;;;;;;;-3.67;100.00;96709.13;10520231;28;3006;-68
2023/01/23 02:15:42;;;;;;;;;;;;;;;-3.62;100.00;96700.78;10526579;28;2909;-70
2023/01/23 02:20:46;;;;;;;;;;;;;;;-3.57;100.00;96695.84;10525712;28;2859;-68
2023/01/23 02:25:50;;;;;;;;;;;;;;;-3.58;100.00;96688.94;10521138;28;2912;-70
2023/01/23 02:30:53;;;;;;;;;;;;;;;-3.48;100.00;96696.69;10518150;28;3229;-69
2023/01/23 02:35:56;;;;;;;;;;;;;;;-3.44;100.00;96690.09;10521164;28;2885;-68
2023/01/23 02:40:59;;;;;;;;;;;;;;;-3.49;100.00;96692.41;10545460;27;2909;-69
2023/01/23 02:46:02;;;;;;;;;;;;;;;-3.57;100.00;96690.56;10526588;28;2894;-70
2023/01/23 02:51:05;;;;;;;;;;;;;;;-3.49;100.00;96687.16;10521663;28;3116;-69
2023/01/23 02:56:08;;;;;;;;;;;;;;;-3.85;100.00;96683.00;10528993;28;2894;-70
2023/01/23 03:01:12;;;;;;;;;;;;;;;-3.83;100.00;96703.84;10522567;28;3057;-69
2023/01/23 03:06:15;;;;;;;;;;;;;;;-4.02;100.00;96697.06;10524236;28;2914;-68
2023/01/23 03:11:18;;;;;;;;;;;;;;;-3.94;100.00;96704.16;10510955;28;2873;-69
2023/01/23 03:16:21;;;;;;;;;;;;;;;-3.88;100.00;96719.25;10519663;28;2902;-71
2023/01/23 03:21:24;;;;;;;;;;;;;;;-3.88;100.00;96720.09;10527211;28;2834;-68
2023/01/23 03:26:28;;;;;;;;;;;;;;;-3.98;100.00;96714.16;10522874;28;2846;-68
2023/01/23 03:31:31;;;;;;;;;;;;;;;-3.89;100.00;96717.63;10517779;28;2910;-68
2023/01/23 03:36:36;;;;;;;;;;;;;;;-3.73;100.00;96711.59;10520893;28;2914;-73
2023/01/23 03:41:40;;;;;;;;;;;;;;;-3.76;100.00;96707.47;10520198;28;2862;-69
2023/01/23 03:46:43;;;;;;;;;;;;;;;-3.63;100.00;96709.63;10526934;28;2981;-69
2023/01/23 03:51:47;;;;;;;;;;;;;;;-3.62;100.00;96706.03;10523291;28;2913;-68
2023/01/23 03:56:50;;;;;;;;;;;;;;;-3.61;100.00;96711.13;10517768;28;2839;-69
2023/01/23 04:01:53;;;;;;;;;;;;;;;-3.50;100.00;96712.59;10518459;28;2892;-70
2023/01/23 04:06:56;;;;;;;;;;;;;;;-3.57;100.00;96717.69;10527041;28;3023;-70
2023/01/23 04:11:59;;;;;;;;;;;;;;;-3.52;100.00;96719.81;10532497;28;2909;-68
2023/01/23 04:17:02;;;;;;;;;;;;;;;-3.47;100.00;96725.44;10532039;28;2826;-69
2023/01/23 04:22:05;;;;;;;;;;;;;;;-3.44;100.00;96719.00;10522588;28;2891;-68
2023/01/23 04:27:08;;;;;;;;;;;;;;;-3.56;100.00;96729.84;10532476;28;2936;-69
2023/01/23 04:32:11;;;;;;;;;;;;;;;-3.72;100.00;96731.63;10529501;28;2913;-69
2023/01/23 04:37:14;;;;;;;;;;;;;;;-3.61;100.00;96731.31;10528620;28;2920;-69
2023/01/23 04:42:17;;;;;;;;;;;;;;;-3.57;100.00;96730.81;10531267;28;2958;-70
2023/01/23 04:47:21;;;;;;;;;;;;;;;-3.45;100.00;96726.06;10533512;28;3224;-70
2023/01/23 04:52:24;;;;;;;;;;;;;;;-3.48;100.00;96726.41;10528969;28;2874;-69
2023/01/23 04:57:27;;;;;;;;;;;;;;;-3.51;100.00;96726.72;10527605;28;2917;-70
2023/01/23 05:02:30;;;;;;;;;;;;;;;-3.65;100.00;96722.94;10528680;28;2962;-71
2023/01/23 05:07:33;;;;;;;;;;;;;;;-3.52;100.00;96735.59;10524294;28;2912;-69
2023/01/23 05:12:36;;;;;;;;;;;;;;;-3.48;100.00;96730.84;10529314;28;2866;-69
2023/01/23 05:17:39;;;;;;;;;;;;;;;-3.45;100.00;96723.44;10530269;28;2846;-70
2023/01/23 05:22:51;;;;;;;;;;;;;;;-3.43;100.00;96729.38;10530759;28;2906;-70
2023/01/23 05:27:54;;;;;;;;;;;;;;;-3.36;100.00;96733.00;10535593;28;2860;-69
2023/01/23 05:32:57;;;;;;;;;;;;;;;-3.27;100.00;96753.03;10538294;28;2871;-74
2023/01/23 05:38:00;;;;;;;;;;;;;;;-3.37;100.00;96765.53;10520734;28;2891;-72
2023/01/23 05:43:04;;;;;;;;;;;;;;;-3.45;100.00;96757.63;10536226;28;3309;-70
2023/01/23 05:48:07;;;;;;;;;;;;;;;-3.40;100.00;96760.59;10515569;28;2954;-69
2023/01/23 05:53:10;;;;;;;;;;;;;;;-3.41;100.00;96758.13;10521675;28;2893;-71
2023/01/23 05:58:13;;;;;;;;;;;;;;;-3.36;100.00;96755.84;10520922;28;2844;-72
2023/01/23 06:03:18;;;;;;;;;;;;;;;-3.38;100.00;96757.78;10521025;28;2913;-70
2023/01/23 06:08:22;;;;;;;;;;;;;;;-3.22;100.00;96751.75;10524062;28;2839;-71
2023/01/23 06:13:26;;;;;;;;;;;;;;;-3.26;100.00;96752.06;10529548;28;2906;-72
2023/01/23 06:18:29;;;;;;;;;;;;;;;-3.23;100.00;96771.13;10525757;28;3092;-70
2023/01/23 06:23:32;;;;;;;;;;;;;;;-3.23;100.00;96776.41;10521197;28;2849;-71
2023/01/23 06:28:35;;;;;;;;;;;;;;;-3.20;100.00;96773.44;10522059;28;2944;-69
2023/01/23 06:33:38;;;;;;;;;;;;;;;-3.21;100.00;96785.75;10521184;28;3020;-70
2023/01/23 06:38:41;;;;;;;;;;;;;;;-3.35;100.00;96784.59;10523681;28;2926;-70
2023/01/23 06:43:44;;;;;;;;;;;;;;;-3.28;100.00;96764.56;10519904;28;2891;-73
2023/01/23 06:48:47;;;;;;;;;;;;;;;-3.29;100.00;96768.16;10524934;28;2861;-71
2023/01/23 06:53:51;;;;;;;;;;;;;;;-3.18;100.00;96769.66;10523329;28;2910;-70
2023/01/23 06:58:54;;;;;;;;;;;;;;;-3.14;100.00;96775.41;10525166;28;3002;-70
2023/01/23 07:03:57;;;;;;;;;;;;;;;-3.12;100.00;96781.31;10522697;28;2992;-69
2023/01/23 07:09:01;;;;;;;;;;;;;;;-3.02;100.00;96777.56;10516577;28;3070;-73
2023/01/23 07:14:04;;;;;;;;;;;;;;;-3.08;100.00;96790.53;10522016;28;3332;-69
2023/01/23 07:19:08;;;;;;;;;;;;;;;-2.93;100.00;96802.03;10525131;28;2875;-69
2023/01/23 07:24:11;;;;;;;;;;;;;;;-3.10;100.00;96801.22;10518467;28;2854;-69
2023/01/23 07:29:14;;;;;;;;;;;;;;;-3.14;100.00;96810.41;10527514;28;3020;-69
2023/01/23 07:34:17;;;;;;;;;;;;;;;-3.18;100.00;96826.66;10522153;28;2890;-71
2023/01/23 07:39:20;;;;;;;;;;;;;;;-2.96;100.00;96819.97;10511647;28;2935;-69
2023/01/23 07:44:23;;;;;;;;;;;;;;;-3.03;100.00;96806.66;10517723;28;2849;-72
2023/01/23 07:49:26;;;;;;;;;;;;;;;-3.15;100.00;96802.69;10526652;28;2980;-74
2023/01/23 07:54:29;;;;;;;;;;;;;;;-3.11;100.00;96818.00;10527331;28;2855;-74
2023/01/23 07:59:33;;;;;;;;;;;;;;;-3.01;100.00;96820.47;10539648;28;3021;-72
2023/01/23 08:04:36;;;;;;;;;;;;;;;-2.90;100.00;96830.66;10525639;28;2910;-73
2023/01/23 08:09:39;;;;;;;;;;;;;;;-2.86;100.00;96821.47;10526701;28;2878;-78
2023/01/23 08:14:42;;;;;;;;;;;;;;;-2.82;100.00;96827.22;10527286;28;3016;-78
2023/01/23 08:19:45;;;;;;;;;;;;;;;-2.80;100.00;96820.81;10535965;28;2901;-74
2023/01/23 08:24:48;;;;;;;;;;;;;;;-2.70;100.00;96823.25;10536005;28;2871;-74
2023/01/23 08:29:52;;;;;;;;;;;;;;;-2.68;100.00;96809.94;10524468;28;2972;-74
2023/01/23 08:34:56;;;;;;;;;;;;;;;-2.58;100.00;96824.56;10527181;28;2851;-73
2023/01/23 08:39:59;;;;;;;;;;;;;;;-2.52;100.00;96828.38;10528384;28;2891;-72
2023/01/23 08:45:03;;;;;;;;;;;;;;;-2.41;100.00;96841.19;10526214;28;2853;-71
2023/01/23 08:50:06;;;;;;;;;;;;;;;-2.33;100.00;96822.75;10532341;28;2905;-72
2023/01/23 08:55:11;;;;;;;;;;;;;;;-2.04;100.00;96813.44;10533420;28;3003;-72
2023/01/23 09:00:14;;;;;;;;;;;;;;;-2.09;100.00;96824.50;10549423;27;2888;-72
2023/01/23 09:05:18;;;;;;;;;;;;;;;-2.13;100.00;96832.91;10535046;28;2970;-72
2023/01/23 09:10:21;;;;;;;;;;;;;;;-2.04;100.00;96831.88;10526090;28;2873;-71
2023/01/23 09:15:26;;;;;;;;;;;;;;;-1.71;100.00;96832.63;10531028;28;2913;-73
2023/01/23 09:20:29;;;;;;;;;;;;;;;-1.80;100.00;96841.53;10521608;28;2857;-74
2023/01/23 09:25:33;;;;;;;;;;;;;;;-1.85;100.00;96836.75;10527286;28;3040;-72
2023/01/23 09:30:39;;;;;;;;;;;;;;;-1.85;100.00;96820.94;10527405;28;2932;-72
2023/01/23 09:35:51;;;;;;;;;;;;;;;-1.85;100.00;96822.78;10528323;28;2883;-72
2023/01/23 09:40:55;;;;;;;;;;;;;;;-1.67;100.00;96803.09;10536878;28;2861;-72
2023/01/23 09:45:59;;;;;;;;;;;;;;;-1.32;100.00;96800.94;10536249;28;3303;-73
2023/01/23 09:51:03;;;;;;;;;;;;;;;-1.45;100.00;96830.53;10527315;28;2906;-74
2023/01/23 09:56:07;;;;;;;;;;;;;;;-1.56;100.00;96820.34;10534449;28;2909;-72
2023/01/23 10:01:13;;;;;;;;;;;;;;;-1.54;100.00;96818.34;10529285;28;2970;-73
2023/01/23 10:06:16;;;;;;;;;;;;;;;-1.55;100.00;96822.00;10529911;28;2997;-70
2023/01/23 10:11:20;;;;;;;;;;;;;;;-1.46;100.00;96810.44;10520049;28;2972;-72
2023/01/23 10:16:24;;;;;;;;;;;;;;;-1.26;100.00;96810.81;10524401;28;2838;-72
2023/01/23 10:21:32;;;;;;;;;;;;;;;-1.42;100.00;96789.78;10525678;28;2973;-74
2023/01/23 10:26:35;;;;;;;;;;;;;;;-1.41;100.00;96796.69;10533521;28;2936;-74
2023/01/23 10:31:38;;;;;;;;;;;;;;;-1.53;100.00;96790.16;10523197;28;2896;-74
2023/01/23 10:36:42;;;;;;;;;;;;;;;-1.33;100.00;96780.03;10522592;28;2846;-75
2023/01/23 10:41:59;;;;;;;;;;;;;;;-1.29;100.00;96790.03;10526307;28;3237;-72
2023/01/23 10:47:05;;;;;;;;;;;;;;;-1.30;100.00;96777.84;10529602;28;2853;-73
2023/01/23 10:52:08;;;;;;;;;;;;;;;-1.18;100.00;96773.81;10537110;28;2893;-73
2023/01/23 10:57:12;;;;;;;;;;;;;;;-1.18;100.00;96779.09;10529984;28;3039;-73
2023/01/23 11:02:15;;;;;;;;;;;;;;;-1.03;100.00;96760.66;10519800;28;2901;-73
2023/01/23 11:07:18;;;;;;;;;;;;;;;-0.75;100.00;96753.03;10528209;28;2929;-73
2023/01/23 11:12:21;;;;;;;;;;;;;;;-0.87;100.00;96749.19;10526369;28;2930;-72
2023/01/23 11:17:25;;;;;;;;;;;;;;;-0.69;100.00;96741.75;10531730;28;2906;-73
2023/01/23 11:22:28;;;;;;;;;;;;;;;-0.46;100.00;96738.22;10525499;28;3195;-73
2023/01/23 11:27:31;;;;;;;;;;;;;;;-0.38;100.00;96730.19;10526842;28;3198;-76
2023/01/23 11:32:35;;;;;;;;;;;;;;;-0.52;100.00;96717.81;10529253;28;3188;-74
2023/01/23 11:37:39;;;;;;;;;;;;;;;-0.87;100.00;96726.22;10529533;28;3255;-74
2023/01/23 11:42:42;;;;;;;;;;;;;;;-0.87;100.00;96720.13;10520836;28;3277;-75
2023/01/23 11:47:47;;;;;;;;;;;;;;;-0.85;100.00;96716.31;10527841;28;3266;-73
2023/01/23 11:52:51;;;;;;;;;;;;;;;-0.93;100.00;96726.13;10525677;28;3202;-76
2023/01/23 11:57:54;;;;;;;;;;;;;;;-1.04;100.00;96723.91;10526627;28;3187;-76
2023/01/23 12:02:58;;;;;;;;;;;;;;;-1.09;100.00;96706.78;10527101;28;3143;-73
2023/01/23 12:08:01;;;;;;;;;;;;;;;-0.90;100.00;96699.38;10524645;28;3229;-74
2023/01/23 12:13:05;;;;;;;;;;;;;;;-0.93;100.00;96695.28;10506562;28;3270;-74
2023/01/23 12:18:08;;;;;;;;;;;;;;;-0.71;100.00;96688.28;10520975;28;3097;-75
2023/01/23 12:23:11;;;;;;;;;;;;;;;-0.62;100.00;96681.94;10523217;28;3251;-75
2023/01/23 12:28:15;;;;;;;;;;;;;;;-0.39;100.00;96683.66;10534541;28;3195;-73
2023/01/23 12:33:20;;;;;;;;;;;;;;;-0.29;100.00;96679.75;10533475;28;3162;-72
2023/01/23 12:38:24;;;;;;;;;;;;;;;-0.51;100.00;96693.03;10525174;28;3198;-74
2023/01/23 12:43:30;;;;;;;;;;;;;;;-0.56;100.00;96667.19;10534754;28;3183;-74
2023/01/23 12:48:33;;;;;;;;;;;;;;;-0.59;100.00;96664.91;10539697;28;3179;-72
2023/01/23 12:53:37;;;;;;;;;;;;;;;-0.19;100.00;96670.69;10530354;28;3113;-71
2023/01/23 12:58:40;;;;;;;;;;;;;;;-0.07;100.00;96662.13;10510586;28;3182;-74
2023/01/23 13:03:43;;;;;;;;;;;;;;;-0.52;100.00;96662.34;10527439;28;3116;-72
2023/01/23 13:08:49;;;;;;;;;;;;;;;-0.57;100.00;96666.38;10538273;28;3151;-73
2023/01/23 13:14:11;;;;;;;;;;;;;;;-0.74;100.00;96670.19;10529069;28;3236;-72
2023/01/23 13:29:58;;;;;;;;;;;;;;;-0.57;100.00;96674.31;10527906;28;3191;-72
2023/01/23 13:35:02;;;;;;;;;;;;;;;-0.62;100.00;96679.28;10519677;28;3140;-73
2023/01/23 13:40:05;;;;;;;;;;;;;;;-0.62;100.00;96692.50;10526270;28;3203;-74
2023/01/23 13:45:09;;;;;;;;;;;;;;;-0.54;100.00;96686.31;10531812;28;3186;-71
2023/01/23 13:50:15;;;;;;;;;;;;;;;-0.48;100.00;96676.84;10535297;28;3156;-72
2023/01/23 14:06:42;;;;;;;;;;;;;;;-0.56;100.00;96678.56;10162767;29;3194;-72
2023/01/23 14:12:01;;;;;;;;;;;;;;;-0.23;100.00;96686.13;10034571;29;3258;-75
2023/01/23 14:17:19;;;;;;;;;;;;;;;-0.31;100.00;96684.41;10064604;29;3315;-72
2023/01/23 14:22:36;;;;;;;;;;;;;;;-0.27;100.00;96677.72;10058049;29;3236;-74
2023/01/23 14:27:41;;;;;;;;;;;;;;;-0.24;100.00;96662.53;10133886;28;3227;-72
2023/01/23 14:32:57;;;;;;;;;;;;;;;0.11;100.00;96663.56;10261654;28;3301;-72
2023/01/23 14:38:01;;;;;;;;;;;;;;;-0.21;100.00;96662.97;10398069;28;3287;-72
2023/01/23 14:43:06;;;;;;;;;;;;;;;-0.35;100.00;96666.44;10397351;28;3291;-73
2023/01/23 14:48:11;;;;;;;;;;;;;;;-0.34;100.00;96668.09;10522726;28;3183;-71
2023/01/23 14:53:15;;;;;;;;;;;;;;;-0.40;100.00;96668.81;10521763;28;3143;-72
2023/01/23 14:58:23;;;;;;;;;;;;;;;-0.40;100.00;96669.63;10528155;28;3099;-71
2023/01/23 15:03:27;;;;;;;;;;;;;;;-0.41;100.00;96667.19;10523352;28;3045;-73
2023/01/23 15:08:31;;;;;;;;;;;;;;;-0.48;100.00;96672.38;10528613;28;3248;-71
2023/01/23 15:13:36;;;;;;;;;;;;;;;-0.41;100.00;96672.47;10525162;28;3132;-71
2023/01/23 15:18:40;;;;;;;;;;;;;;;-0.42;100.00;96681.41;10525554;28;3199;-71
2023/01/23 15:23:44;;;;;;;;;;;;;;;-0.58;100.00;96688.47;10523618;28;3121;-75
2023/01/23 15:28:47;;;;;;;;;;;;;;;-0.56;100.00;96694.41;10522919;28;3151;-73
2023/01/23 15:33:51;;;;;;;;;;;;;;;-0.50;100.00;96677.03;10524311;28;3168;-73
2023/01/23 15:38:54;;;;;;;;;;;;;;;-0.60;100.00;96685.22;10516918;28;3198;-70
2023/01/23 15:43:58;;;;;;;;;;;;;;;-0.52;100.00;96691.41;10522414;28;3251;-73
2023/01/23 15:49:01;;;;;;;;;;;;;;;-0.61;100.00;96699.41;10523103;28;3338;-70
2023/01/23 15:54:12;;;;;;;;;;;;;;;-0.64;100.00;96691.84;10525324;28;3325;-73
2023/01/23 15:59:16;;;;;;;;;;;;;;;-0.57;100.00;96700.72;10524256;28;3317;-73
2023/01/23 16:04:19;;;;;;;;;;;;;;;-0.61;100.00;96702.06;10534021;28;3311;-75
2023/01/23 16:09:24;;;;;;;;;;;;;;;-0.63;100.00;96705.88;10537707;28;3190;-73
2023/01/23 16:14:28;;;;;;;;;;;;;;;-0.63;100.00;96714.63;10535116;28;3215;-73
2023/01/23 16:19:32;;;;;;;;;;;;;;;-0.62;100.00;96724.19;10535694;28;3057;-74
2023/01/23 16:24:36;;;;;;;;;;;;;;;-0.61;100.00;96730.28;10537960;28;3117;-74
2023/01/23 16:29:42;;;;;;;;;;;;;;;-0.58;100.00;96722.81;10532321;28;3397;-73
2023/01/23 16:34:46;;;;;;;;;;;;;;;-0.58;100.00;96722.81;10532628;28;3174;-75
2023/01/23 16:39:49;;;;;;;;;;;;;;;-0.63;100.00;96719.09;10531414;28;3128;-73
2023/01/23 16:44:52;;;;;;;;;;;;;;;-0.62;100.00;96729.47;10527817;28;3222;-72
2023/01/23 16:49:55;;;;;;;;;;;;;;;-0.64;100.00;96715.59;10536454;28;3318;-73
2023/01/23 16:54:59;;;;;;;;;;;;;;;-0.54;100.00;96715.34;10512872;28;3064;-73
2023/01/23 17:00:07;;;;;;;;;;;;;;;-0.53;100.00;96717.00;10532327;28;3183;-72
2023/01/23 17:05:12;;;;;;;;;;;;;;;-0.56;100.00;96722.66;10538001;28;3206;-72
2023/01/23 17:10:19;;;;;;;;;;;;;;;-0.56;100.00;96725.28;10516153;28;3296;-73
2023/01/23 17:15:23;;;;;;;;;;;;;;;-0.63;100.00;96721.72;10538012;28;3293;-75
2023/01/23 17:20:35;;;;;;;;;;;;;;;-0.58;100.00;96736.00;10540803;28;1970;-74
2023/01/23 17:25:46;;;;;;;;;;;;;;;-0.59;100.00;96726.47;10519793;28;3203;-74
2023/01/23 17:31:04;;;;;;;;;;;;;;;-0.63;100.00;96730.47;10543933;28;3398;-74
2023/01/23 17:36:08;;;;;;;;;;;;;;;-0.66;100.00;96730.81;10533499;28;3115;-74
2023/01/23 17:41:12;;;;;;;;;;;;;;;-0.60;100.00;96730.09;10536685;28;3194;-73
2023/01/23 17:46:15;;;;;;;;;;;;;;;-0.57;100.00;96737.69;10523806;28;3152;-72
2023/01/23 17:51:18;;;;;;;;;;;;;;;-0.52;100.00;96738.94;10520090;28;3121;-74
2023/01/23 17:56:21;;;;;;;;;;;;;;;-0.53;100.00;96742.59;10525889;28;3140;-72
2023/01/23 18:01:25;;;;;;;;;;;;;;;-0.49;100.00;96741.25;10506164;28;3119;-73
2023/01/23 18:06:28;;;;;;;;;;;;;;;-0.57;100.00;96737.69;10516596;28;3501;-72
2023/01/23 18:11:32;;;;;;;;;;;;;;;-0.49;100.00;96743.88;10521291;28;3170;-74
2023/01/23 18:16:35;;;;;;;;;;;;;;;-0.52;100.00;96744.22;10522770;28;3096;-76
2023/01/23 18:21:39;;;;;;;;;;;;;;;-0.48;100.00;96745.50;10520819;28;3183;-74
2023/01/23 18:26:42;;;;;;;;;;;;;;;-0.55;100.00;96746.22;10526368;28;3517;-73
2023/01/23 18:31:45;;;;;;;;;;;;;;;-0.58;100.00;96757.13;10522387;28;3136;-73
2023/01/23 18:36:49;;;;;;;;;;;;;;;-0.48;100.00;96758.72;10517707;28;3153;-73
2023/01/23 18:41:53;;;;;;;;;;;;;;;-0.55;100.00;96771.81;10526039;28;3183;-74
2023/01/23 18:46:59;;;;;;;;;;;;;;;-0.64;100.00;96772.88;10507771;28;3183;-71
2023/01/23 18:52:02;;;;;;;;;;;;;;;-0.66;100.00;96767.78;10524793;28;3191;-74
2023/01/23 18:57:06;;;;;;;;;;;;;;;-0.73;100.00;96789.81;10502321;28;3317;-72
2023/01/23 19:02:09;;;;;;;;;;;;;;;-0.73;100.00;96781.88;10503379;28;3201;-73
2023/01/23 19:07:13;;;;;;;;;;;;;;;-0.79;100.00;96785.25;10524809;28;3333;-74
2023/01/23 19:12:17;;;;;;;;;;;;;;;-0.76;100.00;96784.88;10500907;28;3144;-72
2023/01/23 19:17:28;;;;;;;;;;;;;;;-0.82;100.00;96792.53;10524377;28;3215;-74
2023/01/23 19:22:31;;;;;;;;;;;;;;;-0.80;100.00;96794.97;10524174;28;3564;-74
2023/01/23 19:27:34;;;;;;;;;;;;;;;-0.76;100.00;96806.00;10516913;28;3222;-77
2023/01/23 19:32:37;;;;;;;;;;;;;;;-0.67;100.00;96805.75;10526688;28;3271;-73
2023/01/23 19:37:44;;;;;;;;;;;;;;;-0.66;100.00;96817.97;10522629;28;3216;-72
2023/01/23 19:42:47;;;;;;;;;;;;;;;-0.68;100.00;96814.69;10519833;28;3199;-74
2023/01/23 19:48:07;;;;;;;;;;;;;;;-0.72;100.00;96823.13;10521437;28;3302;-74
2023/01/23 19:53:12;;;;;;;;;;;;;;;-0.67;100.00;96821.59;10520002;28;3177;-72
2023/01/23 19:58:15;;;;;;;;;;;;;;;-0.70;100.00;96821.97;10518285;28;3158;-72
2023/01/23 20:03:19;;;;;;;;;;;;;;;-0.68;100.00;96829.72;10535109;28;3202;-72
2023/01/23 20:08:24;;;;;;;;;;;;;;;-0.73;100.00;96822.31;10519212;28;3123;-74
2023/01/23 20:13:28;;;;;;;;;;;;;;;-0.71;100.00;96830.88;10502589;28;3143;-74
2023/01/23 20:18:32;;;;;;;;;;;;;;;-0.69;100.00;96838.63;10516315;28;3251;-71
2023/01/23 20:23:36;;;;;;;;;;;;;;;-0.73;100.00;96838.16;10524694;28;3148;-75
2023/01/23 20:28:39;;;;;;;;;;;;;;;-0.66;100.00;96838.25;10520605;28;3181;-74
2023/01/23 20:33:43;;;;;;;;;;;;;;;-0.63;100.00;96837.94;10522332;28;3198;-74
2023/01/23 20:38:47;;;;;;;;;;;;;;;-0.66;100.00;96841.72;10520590;28;3167;-75
2023/01/23 20:43:50;;;;;;;;;;;;;;;-0.64;100.00;96841.53;10520933;28;3146;-75
2023/01/23 20:48:54;;;;;;;;;;;;;;;-0.65;100.00;96846.00;10528054;28;3188;-75
2023/01/23 20:53:58;;;;;;;;;;;;;;;-0.64;100.00;96845.00;10527212;28;3171;-73
2023/01/23 20:59:22;;;;;;;;;;;;;;;-0.64;100.00;96852.91;10531430;28;3176;-76
2023/01/23 21:04:26;;;;;;;;;;;;;;;-0.62;100.00;96860.69;10527736;28;3219;-74
2023/01/23 21:09:30;;;;;;;;;;;;;;;-0.65;100.00;96864.47;10533093;28;3119;-74
2023/01/23 21:14:34;;;;;;;;;;;;;;;-0.65;100.00;96856.56;10524274;28;3238;-76
2023/01/23 21:19:37;;;;;;;;;;;;;;;-0.69;100.00;96859.75;10526705;28;3128;-75
2023/01/23 21:24:41;;;;;;;;;;;;;;;-0.67;100.00;96858.56;10523380;28;3207;-78
2023/01/23 21:29:44;;;;;;;;;;;;;;;-0.69;100.00;96865.03;10523949;28;3159;-76
2023/01/23 21:34:50;;;;;;;;;;;;;;;-0.60;100.00;96858.69;10526284;28;3177;-74
2023/01/23 21:39:53;;;;;;;;;;;;;;;-0.57;100.00;96866.28;10529665;28;3191;-75
2023/01/23 21:44:57;;;;;;;;;;;;;;;-0.67;100.00;96869.13;10523950;28;3282;-75
2023/01/23 21:50:00;;;;;;;;;;;;;;;-0.70;100.00;96873.94;10519869;28;3148;-77
2023/01/23 21:55:04;;;;;;;;;;;;;;;-0.73;100.00;96869.84;10516927;28;3246;-76
2023/01/23 22:05:28;;;;;;;;;;;;;;;-0.69;100.00;96870.31;10518223;28;3168;-75
2023/01/23 22:10:31;;;;;;;;;;;;;;;-0.72;100.00;96866.19;10505603;28;3588;-75
2023/01/23 22:15:35;;;;;;;;;;;;;;;-0.72;100.00;96875.94;10528443;28;3202;-74
2023/01/23 22:20:38;;;;;;;;;;;;;;;-0.67;100.00;96884.97;10523323;28;3172;-76
2023/01/23 22:25:42;;;;;;;;;;;;;;;-0.63;100.00;96883.63;10526247;28;3166;-77
2023/01/23 22:30:45;;;;;;;;;;;;;;;-0.65;100.00;96893.53;10525225;28;3175;-75
2023/01/23 22:35:48;;;;;;;;;;;;;;;-0.66;100.00;96885.78;10525727;28;3160;-76
2023/01/23 22:40:52;;;;;;;;;;;;;;;-0.69;100.00;96892.25;10525395;28;3179;-76
2023/01/23 22:45:55;;;;;;;;;;;;;;;-0.62;100.00;96893.19;10521812;28;3088;-76
2023/01/23 22:50:58;;;;;;;;;;;;;;;-0.56;100.00;96889.03;10520459;28;3151;-75
2023/01/23 22:56:02;;;;;;;;;;;;;;;-0.63;100.00;96888.09;10525409;28;3206;-76
2023/01/23 23:01:05;;;;;;;;;;;;;;;-0.73;100.00;96888.31;10521183;28;3151;-76
2023/01/23 23:06:08;;;;;;;;;;;;;;;-0.74;100.00;96885.84;10524021;28;3120;-77
2023/01/23 23:11:11;;;;;;;;;;;;;;;-0.73;100.00;96896.25;10519617;28;3332;-76
2023/01/23 23:16:16;;;;;;;;;;;;;;;-0.67;100.00;96884.97;10521305;28;3195;-77
2023/01/23 23:21:19;;;;;;;;;;;;;;;-0.75;100.00;96887.69;10524931;28;3152;-75
2023/01/23 23:26:25;;;;;;;;;;;;;;;-0.72;100.00;96887.31;10524843;28;3258;-75
2023/01/23 23:31:28;;;;;;;;;;;;;;;-0.64;100.00;96889.88;10514380;28;3187;-74
2023/01/23 23:36:32;;;;;;;;;;;;;;;-0.73;100.00;96888.31;10523335;28;3187;-77
2023/01/23 23:41:35;;;;;;;;;;;;;;;-0.71;100.00;96870.47;10519298;28;3088;-78
2023/01/23 23:46:38;;;;;;;;;;;;;;;-0.70;100.00;96885.34;10523655;28;3223;-77
2023/01/23 23:51:41;;;;;;;;;;;;;;;-0.73;100.00;96880.41;10519079;28;3187;-78
2023/01/23 23:56:44;;;;;;;;;;;;;;;-0.74;100.00;96884.03;10534656;28;3175;-78
